Hayes, South Dakota
Current Conditions -  °F | °C
As of 5:55 AM on Wednesday 26 Nov 2014 (Local Time) from KPHP Reporting Station
Overcast Overcast  
Wind Chill: 15°   Ceiling: 1500
Heat Index: 24°   Visibility: 10mi
Dew Point: 17°   Wind: 8mph
Humidity: 75%   Direction: 20°NNE
Pressure: 30.25"   Gusts: NA
Location:  44.37°N, 101.02°W
Report Text: KPHP 261255Z AUTO 02007KT 10SM BKN015 OVC026 M04/M08 A3025 RMK AO2 SLP264 T10441083
Loading
Personal Weather Stations






























Interactive Weather Map New forecast layout! Learn more

10-Day Weather Forecast

Advertisements
Track Severe Weather on mobile